sensor_id;sensor_type;location;lat;lon;timestamp;P1;durP1;ratioP1;P2;durP2;ratioP2
76833;SDS011;65793;42.678;23.332;2023-02-18T00:02:13;20.73;;;13.85;;
76833;SDS011;65793;42.678;23.332;2023-02-18T00:05:14;22.42;;;12.80;;
76833;SDS011;65793;42.678;23.332;2023-02-18T00:08:16;24.75;;;15.43;;
76833;SDS011;65793;42.678;23.332;2023-02-18T00:11:17;20.48;;;13.88;;
76833;SDS011;65793;42.678;23.332;2023-02-18T00:14:19;19.33;;;11.18;;
76833;SDS011;65793;42.678;23.332;2023-02-18T00:17:20;19.63;;;10.50;;
76833;SDS011;65793;42.678;23.332;2023-02-18T00:20:20;23.90;;;12.90;;
76833;SDS011;65793;42.678;23.332;2023-02-18T00:23:22;23.38;;;12.93;;
76833;SDS011;65793;42.678;23.332;2023-02-18T00:26:23;17.95;;;12.35;;
76833;SDS011;65793;42.678;23.332;2023-02-18T00:29:24;30.90;;;14.95;;
76833;SDS011;65793;42.678;23.332;2023-02-18T00:32:24;21.05;;;13.98;;
76833;SDS011;65793;42.678;23.332;2023-02-18T00:35:25;23.10;;;13.13;;
76833;SDS011;65793;42.678;23.332;2023-02-18T00:38:27;23.90;;;11.95;;
76833;SDS011;65793;42.678;23.332;2023-02-18T00:41:28;23.70;;;12.95;;
76833;SDS011;65793;42.678;23.332;2023-02-18T00:44:29;20.40;;;12.30;;
76833;SDS011;65793;42.678;23.332;2023-02-18T00:47:29;20.23;;;10.82;;
76833;SDS011;65793;42.678;23.332;2023-02-18T00:50:30;18.67;;;12.18;;
76833;SDS011;65793;42.678;23.332;2023-02-18T00:53:32;23.20;;;12.35;;
76833;SDS011;65793;42.678;23.332;2023-02-18T00:56:33;20.10;;;12.95;;
76833;SDS011;65793;42.678;23.332;2023-02-18T00:59:34;22.35;;;12.63;;
76833;SDS011;65793;42.678;23.332;2023-02-18T01:02:34;21.80;;;12.55;;
76833;SDS011;65793;42.678;23.332;2023-02-18T01:05:35;22.98;;;13.75;;
76833;SDS011;65793;42.678;23.332;2023-02-18T01:08:37;20.55;;;13.45;;
76833;SDS011;65793;42.678;23.332;2023-02-18T01:11:39;18.53;;;12.10;;
76833;SDS011;65793;42.678;23.332;2023-02-18T01:14:39;23.25;;;12.40;;
76833;SDS011;65793;42.678;23.332;2023-02-18T01:17:40;18.55;;;12.80;;
76833;SDS011;65793;42.678;23.332;2023-02-18T01:20:41;27.50;;;15.85;;
76833;SDS011;65793;42.678;23.332;2023-02-18T01:23:44;34.28;;;16.00;;
76833;SDS011;65793;42.678;23.332;2023-02-18T01:26:45;20.98;;;13.35;;
76833;SDS011;65793;42.678;23.332;2023-02-18T01:29:46;25.95;;;16.13;;
76833;SDS011;65793;42.678;23.332;2023-02-18T01:32:46;34.15;;;19.67;;
76833;SDS011;65793;42.678;23.332;2023-02-18T01:35:47;17.73;;;12.40;;
76833;SDS011;65793;42.678;23.332;2023-02-18T01:38:50;16.42;;;10.18;;
76833;SDS011;65793;42.678;23.332;2023-02-18T01:41:50;17.70;;;13.35;;
76833;SDS011;65793;42.678;23.332;2023-02-18T01:44:51;19.08;;;11.68;;
76833;SDS011;65793;42.678;23.332;2023-02-18T01:47:52;17.45;;;11.07;;
76833;SDS011;65793;42.678;23.332;2023-02-18T01:50:53;23.08;;;12.23;;
76833;SDS011;65793;42.678;23.332;2023-02-18T01:53:59;22.08;;;11.55;;
76833;SDS011;65793;42.678;23.332;2023-02-18T01:57:05;18.23;;;11.80;;
76833;SDS011;65793;42.678;23.332;2023-02-18T02:00:08;20.80;;;12.63;;
76833;SDS011;65793;42.678;23.332;2023-02-18T02:03:11;21.92;;;11.75;;
76833;SDS011;65793;42.678;23.332;2023-02-18T02:06:14;17.90;;;12.95;;
76833;SDS011;65793;42.678;23.332;2023-02-18T02:09:19;21.52;;;13.25;;
76833;SDS011;65793;42.678;23.332;2023-02-18T02:12:26;28.55;;;13.80;;
76833;SDS011;65793;42.678;23.332;2023-02-18T02:15:39;51.75;;;23.77;;
76833;SDS011;65793;42.678;23.332;2023-02-18T02:18:48;38.38;;;17.92;;
76833;SDS011;65793;42.678;23.332;2023-02-18T02:22:09;31.73;;;16.10;;
76833;SDS011;65793;42.678;23.332;2023-02-18T02:25:37;16.88;;;11.05;;
76833;SDS011;65793;42.678;23.332;2023-02-18T02:28:57;21.20;;;11.10;;
76833;SDS011;65793;42.678;23.332;2023-02-18T02:35:58;15.32;;;9.93;;
76833;SDS011;65793;42.678;23.332;2023-02-18T02:39:05;16.98;;;10.60;;
76833;SDS011;65793;42.678;23.332;2023-02-18T02:42:13;27.23;;;15.57;;
76833;SDS011;65793;42.678;23.332;2023-02-18T02:45:23;18.67;;;12.50;;
76833;SDS011;65793;42.678;23.332;2023-02-18T02:48:41;18.27;;;11.57;;
76833;SDS011;65793;42.678;23.332;2023-02-18T02:51:48;17.33;;;12.57;;
76833;SDS011;65793;42.678;23.332;2023-02-18T02:54:54;33.13;;;16.10;;
76833;SDS011;65793;42.678;23.332;2023-02-18T02:57:55;25.95;;;15.48;;
76833;SDS011;65793;42.678;23.332;2023-02-18T03:01:00;17.70;;;11.88;;
76833;SDS011;65793;42.678;23.332;2023-02-18T03:04:22;18.13;;;11.73;;
76833;SDS011;65793;42.678;23.332;2023-02-18T03:07:46;20.15;;;12.02;;
76833;SDS011;65793;42.678;23.332;2023-02-18T03:11:00;20.92;;;11.02;;
76833;SDS011;65793;42.678;23.332;2023-02-18T03:14:04;20.25;;;10.70;;
76833;SDS011;65793;42.678;23.332;2023-02-18T03:17:14;22.50;;;13.52;;
76833;SDS011;65793;42.678;23.332;2023-02-18T03:20:24;26.77;;;14.60;;
76833;SDS011;65793;42.678;23.332;2023-02-18T03:23:34;23.05;;;12.82;;
76833;SDS011;65793;42.678;23.332;2023-02-18T03:26:39;29.70;;;13.73;;
76833;SDS011;65793;42.678;23.332;2023-02-18T03:29:45;22.15;;;13.18;;
76833;SDS011;65793;42.678;23.332;2023-02-18T03:32:50;24.17;;;14.90;;
76833;SDS011;65793;42.678;23.332;2023-02-18T03:35:55;28.15;;;15.90;;
76833;SDS011;65793;42.678;23.332;2023-02-18T03:38:59;22.80;;;13.45;;
76833;SDS011;65793;42.678;23.332;2023-02-18T03:42:03;35.95;;;16.73;;
76833;SDS011;65793;42.678;23.332;2023-02-18T03:45:04;29.02;;;16.98;;
76833;SDS011;65793;42.678;23.332;2023-02-18T03:48:05;27.73;;;17.60;;
76833;SDS011;65793;42.678;23.332;2023-02-18T03:51:06;27.83;;;17.63;;
76833;SDS011;65793;42.678;23.332;2023-02-18T03:54:08;30.05;;;16.80;;
76833;SDS011;65793;42.678;23.332;2023-02-18T03:57:10;27.95;;;18.65;;
76833;SDS011;65793;42.678;23.332;2023-02-18T04:00:10;33.83;;;17.35;;
76833;SDS011;65793;42.678;23.332;2023-02-18T04:03:11;35.63;;;20.52;;
76833;SDS011;65793;42.678;23.332;2023-02-18T04:06:12;28.58;;;15.93;;
76833;SDS011;65793;42.678;23.332;2023-02-18T04:09:14;28.67;;;16.38;;
76833;SDS011;65793;42.678;23.332;2023-02-18T04:12:14;30.95;;;17.75;;
76833;SDS011;65793;42.678;23.332;2023-02-18T04:15:15;27.67;;;17.33;;
76833;SDS011;65793;42.678;23.332;2023-02-18T04:18:16;25.20;;;15.65;;
76833;SDS011;65793;42.678;23.332;2023-02-18T04:21:17;27.20;;;15.63;;
76833;SDS011;65793;42.678;23.332;2023-02-18T04:24:19;26.98;;;15.85;;
76833;SDS011;65793;42.678;23.332;2023-02-18T04:27:19;28.63;;;15.90;;
76833;SDS011;65793;42.678;23.332;2023-02-18T04:30:20;35.20;;;15.23;;
76833;SDS011;65793;42.678;23.332;2023-02-18T04:33:21;27.33;;;16.17;;
76833;SDS011;65793;42.678;23.332;2023-02-18T04:36:21;29.95;;;15.57;;
76833;SDS011;65793;42.678;23.332;2023-02-18T04:39:23;27.85;;;16.60;;
76833;SDS011;65793;42.678;23.332;2023-02-18T04:42:24;24.40;;;15.48;;
76833;SDS011;65793;42.678;23.332;2023-02-18T04:45:25;23.25;;;14.93;;
76833;SDS011;65793;42.678;23.332;2023-02-18T04:48:26;24.33;;;14.65;;
76833;SDS011;65793;42.678;23.332;2023-02-18T04:51:26;24.23;;;14.25;;
76833;SDS011;65793;42.678;23.332;2023-02-18T04:54:29;22.75;;;13.43;;
76833;SDS011;65793;42.678;23.332;2023-02-18T04:57:29;27.65;;;13.38;;
76833;SDS011;65793;42.678;23.332;2023-02-18T05:00:30;21.38;;;14.70;;
76833;SDS011;65793;42.678;23.332;2023-02-18T05:03:30;22.98;;;13.77;;
76833;SDS011;65793;42.678;23.332;2023-02-18T05:06:31;21.95;;;14.77;;
76833;SDS011;65793;42.678;23.332;2023-02-18T05:09:33;23.65;;;14.77;;
76833;SDS011;65793;42.678;23.332;2023-02-18T05:12:34;26.98;;;14.50;;
76833;SDS011;65793;42.678;23.332;2023-02-18T05:15:34;21.35;;;13.13;;
76833;SDS011;65793;42.678;23.332;2023-02-18T05:18:35;21.88;;;13.55;;
76833;SDS011;65793;42.678;23.332;2023-02-18T05:21:36;37.83;;;24.33;;
76833;SDS011;65793;42.678;23.332;2023-02-18T05:24:37;20.02;;;14.15;;
76833;SDS011;65793;42.678;23.332;2023-02-18T05:27:38;15.85;;;10.82;;
76833;SDS011;65793;42.678;23.332;2023-02-18T05:30:38;27.45;;;14.32;;
76833;SDS011;65793;42.678;23.332;2023-02-18T05:33:39;24.85;;;15.13;;
76833;SDS011;65793;42.678;23.332;2023-02-18T05:36:40;17.60;;;11.45;;
76833;SDS011;65793;42.678;23.332;2023-02-18T05:39:42;23.38;;;11.75;;
76833;SDS011;65793;42.678;23.332;2023-02-18T05:42:42;23.58;;;13.15;;
76833;SDS011;65793;42.678;23.332;2023-02-18T05:45:43;24.58;;;12.70;;
76833;SDS011;65793;42.678;23.332;2023-02-18T05:48:44;24.17;;;12.60;;
76833;SDS011;65793;42.678;23.332;2023-02-18T05:51:44;27.50;;;11.90;;
76833;SDS011;65793;42.678;23.332;2023-02-18T05:54:46;18.02;;;10.60;;
76833;SDS011;65793;42.678;23.332;2023-02-18T05:57:47;28.13;;;13.65;;
76833;SDS011;65793;42.678;23.332;2023-02-18T10:11:22;20.73;;;12.32;;
76833;SDS011;65793;42.678;23.332;2023-02-18T10:14:29;19.23;;;11.93;;
76833;SDS011;65793;42.678;23.332;2023-02-18T10:17:31;17.73;;;11.20;;
76833;SDS011;65793;42.678;23.332;2023-02-18T10:20:33;16.27;;;12.07;;
76833;SDS011;65793;42.678;23.332;2023-02-18T10:23:39;19.45;;;12.18;;
76833;SDS011;65793;42.678;23.332;2023-02-18T10:33:21;12.63;;;9.95;;
76833;SDS011;65793;42.678;23.332;2023-02-18T10:36:34;12.25;;;9.82;;
76833;SDS011;65793;42.678;23.332;2023-02-18T10:39:44;18.33;;;12.82;;
76833;SDS011;65793;42.678;23.332;2023-02-18T10:43:01;14.88;;;12.63;;
76833;SDS011;65793;42.678;23.332;2023-02-18T23:07:04;10.45;;;6.75;;
76833;SDS011;65793;42.678;23.332;2023-02-18T23:10:05;11.20;;;8.27;;
76833;SDS011;65793;42.678;23.332;2023-02-18T23:13:06;12.13;;;7.45;;
76833;SDS011;65793;42.678;23.332;2023-02-18T23:16:08;13.80;;;8.65;;
76833;SDS011;65793;42.678;23.332;2023-02-18T23:19:11;17.35;;;8.38;;
76833;SDS011;65793;42.678;23.332;2023-02-18T23:22:14;10.93;;;8.13;;
76833;SDS011;65793;42.678;23.332;2023-02-18T23:25:16;12.90;;;7.75;;
76833;SDS011;65793;42.678;23.332;2023-02-18T23:28:17;12.65;;;8.95;;
76833;SDS011;65793;42.678;23.332;2023-02-18T23:31:18;15.18;;;8.85;;
76833;SDS011;65793;42.678;23.332;2023-02-18T23:34:19;21.50;;;13.27;;
76833;SDS011;65793;42.678;23.332;2023-02-18T23:37:21;25.00;;;13.77;;
76833;SDS011;65793;42.678;23.332;2023-02-18T23:40:22;18.05;;;9.60;;
76833;SDS011;65793;42.678;23.332;2023-02-18T23:43:22;18.85;;;9.70;;
76833;SDS011;65793;42.678;23.332;2023-02-18T23:46:24;26.15;;;12.40;;
76833;SDS011;65793;42.678;23.332;2023-02-18T23:49:25;14.18;;;8.65;;
76833;SDS011;65793;42.678;23.332;2023-02-18T23:52:28;17.27;;;10.70;;
76833;SDS011;65793;42.678;23.332;2023-02-18T23:55:28;15.52;;;8.10;;
76833;SDS011;65793;42.678;23.332;2023-02-18T23:58:29;16.67;;;9.98;;
